This is the latest recevied weather packets stored in our database for station/object IU4KCH-20. If no packets are shown the sender has not sent any weather packets the latest 10 day(s).
| Time | Temp. | Humidity | Pressure | Rain* | Wind** | Luminosity | Snow |
|---|---|---|---|---|---|---|---|
| 1778112500 | 16.11° C | 56% | 1008.3 hPa | - | - | - | - |
| 1778110698 | 16.11° C | 56% | 1008.3 hPa | - | - | - | - |
| 1778109797 | 16.67° C | 55% | 1008.2 hPa | - | - | - | - |
| 1778107994 | 16.11° C | 57% | 1008.2 hPa | - | - | - | - |
| 1778107093 | 16.11° C | 58% | 1008.1 hPa | - | - | - | - |
| 1778106191 | 16.67° C | 55% | 1008.2 hPa | - | - | - | - |
| 1778105290 | 16.67° C | 56% | 1008.1 hPa | - | - | - | - |
| 1778104390 | 16.11° C | 57% | 1008.2 hPa | - | - | - | - |
| 1778103488 | 17.22° C | 54% | 1008.1 hPa | - | - | - | - |
| 1778102590 | 16.67° C | 56% | 1008.2 hPa | - | - | - | - |
| 1778101685 | 17.22° C | 54% | 1008.2 hPa | - | - | - | - |
| 1778099883 | 17.78° C | 52% | 1008 hPa | - | - | - | - |
| 1778098982 | 17.78° C | 51% | 1007.9 hPa | - | - | - | - |
| 1778098083 | 18.33° C | 51% | 1007.8 hPa | - | - | - | - |
| 1778097180 | 18.33° C | 50% | 1007.5 hPa | - | - | - | - |
| 1778096279 | 18.33° C | 52% | 1007.2 hPa | - | - | - | - |
| 1778095378 | 18.89° C | 51% | 1006.9 hPa | - | - | - | - |
| 1778094477 | 18.89° C | 49% | 1006.7 hPa | - | - | - | - |
| 1778093575 | 19.44° C | 49% | 1006.3 hPa | - | - | - | - |
| 1778092674 | 19.44° C | 48% | 1006 hPa | - | - | - | - |
| 1778091773 | 20° C | 47% | 1005.7 hPa | - | - | - | - |
| 1778090871 | 21.11° C | 45% | 1005.5 hPa | - | - | - | - |
| 1778089970 | 25° C | 31% | 1005.2 hPa | - | - | - | - |
| 1778089069 | 22.78° C | 34% | 1005 hPa | - | - | - | - |
| 1778088168 | 23.89° C | 32% | 1004.8 hPa | - | - | - | - |
* Rain since midnight (hover to see other rain measurements)
** Current wind speed in m/s (hover to see current wind gust speed)